sensor_id;sensor_type;location;lat;lon;timestamp;temperature;humidity
63277;DHT22;49403;51.046;13.780;2023-07-22T00:00:20;20.00;83.80
63277;DHT22;49403;51.046;13.780;2023-07-22T00:00:53;18.90;82.70
63277;DHT22;49403;51.046;13.780;2023-07-22T00:01:24;18.80;82.40
63277;DHT22;49403;51.046;13.780;2023-07-22T00:01:55;18.90;82.50
63277;DHT22;49403;51.046;13.780;2023-07-22T00:02:26;18.90;82.50
63277;DHT22;49403;51.046;13.780;2023-07-22T00:02:58;18.80;82.40
63277;DHT22;49403;51.046;13.780;2023-07-22T00:03:29;18.80;82.50
63277;DHT22;49403;51.046;13.780;2023-07-22T00:04:00;18.80;82.70
63277;DHT22;49403;51.046;13.780;2023-07-22T00:04:32;18.00;82.00
63277;DHT22;49403;51.046;13.780;2023-07-22T00:05:03;18.80;83.00
63277;DHT22;49403;51.046;13.780;2023-07-22T00:05:34;18.80;83.10
63277;DHT22;49403;51.046;13.780;2023-07-22T00:06:09;18.80;83.00
63277;DHT22;49403;51.046;13.780;2023-07-22T00:06:41;18.80;82.90
63277;DHT22;49403;51.046;13.780;2023-07-22T00:07:12;17.70;81.80
63277;DHT22;49403;51.046;13.780;2023-07-22T00:07:44;18.70;83.50
63277;DHT22;49403;51.046;13.780;2023-07-22T00:08:15;18.70;83.40
63277;DHT22;49403;51.046;13.780;2023-07-22T00:08:46;18.70;84.10
63277;DHT22;49403;51.046;13.780;2023-07-22T00:09:17;18.80;84.50
63277;DHT22;49403;51.046;13.780;2023-07-22T00:09:48;18.70;84.50
63277;DHT22;49403;51.046;13.780;2023-07-22T00:10:21;18.70;83.90
63277;DHT22;49403;51.046;13.780;2023-07-22T00:10:52;18.70;83.80
63277;DHT22;49403;51.046;13.780;2023-07-22T00:11:23;18.70;83.70
63277;DHT22;49403;51.046;13.780;2023-07-22T00:11:54;18.70;83.80
63277;DHT22;49403;51.046;13.780;2023-07-22T00:12:25;18.70;84.30
63277;DHT22;49403;51.046;13.780;2023-07-22T00:12:57;18.70;84.40
63277;DHT22;49403;51.046;13.780;2023-07-22T00:13:28;18.70;84.20
63277;DHT22;49403;51.046;13.780;2023-07-22T00:13:59;18.70;84.40
63277;DHT22;49403;51.046;13.780;2023-07-22T00:14:31;18.70;84.60
63277;DHT22;49403;51.046;13.780;2023-07-22T00:15:02;18.70;84.70
63277;DHT22;49403;51.046;13.780;2023-07-22T00:15:34;18.80;84.90
63277;DHT22;49403;51.046;13.780;2023-07-22T00:16:05;18.70;84.70
63277;DHT22;49403;51.046;13.780;2023-07-22T00:16:38;18.70;84.80
63277;DHT22;49403;51.046;13.780;2023-07-22T00:17:10;18.70;85.00
63277;DHT22;49403;51.046;13.780;2023-07-22T00:17:41;18.70;85.20
63277;DHT22;49403;51.046;13.780;2023-07-22T00:18:12;19.20;85.70
63277;DHT22;49403;51.046;13.780;2023-07-22T00:18:44;18.70;85.10
63277;DHT22;49403;51.046;13.780;2023-07-22T00:19:15;18.70;85.10
63277;DHT22;49403;51.046;13.780;2023-07-22T00:19:47;18.70;85.20
63277;DHT22;49403;51.046;13.780;2023-07-22T00:20:20;18.70;85.30
63277;DHT22;49403;51.046;13.780;2023-07-22T00:20:52;18.60;84.70
63277;DHT22;49403;51.046;13.780;2023-07-22T00:21:23;18.60;83.60
63277;DHT22;49403;51.046;13.780;2023-07-22T00:21:54;18.60;83.20
63277;DHT22;49403;51.046;13.780;2023-07-22T00:22:26;18.60;83.20
63277;DHT22;49403;51.046;13.780;2023-07-22T00:22:57;18.40;83.00
63277;DHT22;49403;51.046;13.780;2023-07-22T00:23:29;18.60;83.30
63277;DHT22;49403;51.046;13.780;2023-07-22T00:24:00;18.60;83.40
63277;DHT22;49403;51.046;13.780;2023-07-22T00:24:32;18.60;83.50
63277;DHT22;49403;51.046;13.780;2023-07-22T00:25:03;18.50;83.40
63277;DHT22;49403;51.046;13.780;2023-07-22T00:25:34;18.50;83.30
63277;DHT22;49403;51.046;13.780;2023-07-22T00:26:06;19.70;84.80
63277;DHT22;49403;51.046;13.780;2023-07-22T00:26:37;18.40;83.50
63277;DHT22;49403;51.046;13.780;2023-07-22T00:27:08;18.50;83.60
63277;DHT22;49403;51.046;13.780;2023-07-22T00:27:40;18.50;83.70
63277;DHT22;49403;51.046;13.780;2023-07-22T00:28:12;18.30;83.50
63277;DHT22;49403;51.046;13.780;2023-07-22T00:28:43;18.50;83.70
63277;DHT22;49403;51.046;13.780;2023-07-22T00:29:15;18.50;84.20
63277;DHT22;49403;51.046;13.780;2023-07-22T00:29:46;18.50;84.70
63277;DHT22;49403;51.046;13.780;2023-07-22T00:30:18;18.50;84.90
63277;DHT22;49403;51.046;13.780;2023-07-22T00:30:49;18.50;84.90
63277;DHT22;49403;51.046;13.780;2023-07-22T00:31:20;18.60;84.90
63277;DHT22;49403;51.046;13.780;2023-07-22T00:31:52;18.50;84.80
63277;DHT22;49403;51.046;13.780;2023-07-22T00:32:24;18.50;84.80
63277;DHT22;49403;51.046;13.780;2023-07-22T00:32:55;18.50;85.10
63277;DHT22;49403;51.046;13.780;2023-07-22T00:33:26;18.60;85.40
63277;DHT22;49403;51.046;13.780;2023-07-22T00:33:57;18.50;85.40
63277;DHT22;49403;51.046;13.780;2023-07-22T00:34:28;18.40;85.30
63277;DHT22;49403;51.046;13.780;2023-07-22T00:35:00;19.90;86.70
63277;DHT22;49403;51.046;13.780;2023-07-22T00:35:31;18.50;85.30
63277;DHT22;49403;51.046;13.780;2023-07-22T00:36:02;18.60;85.60
63277;DHT22;49403;51.046;13.780;2023-07-22T00:36:34;18.40;85.40
63277;DHT22;49403;51.046;13.780;2023-07-22T00:37:05;18.60;85.50
63277;DHT22;49403;51.046;13.780;2023-07-22T00:37:36;18.60;85.40
63277;DHT22;49403;51.046;13.780;2023-07-22T00:38:07;18.60;85.50
63277;DHT22;49403;51.046;13.780;2023-07-22T00:38:40;18.60;85.60
63277;DHT22;49403;51.046;13.780;2023-07-22T00:39:11;18.60;85.60
63277;DHT22;49403;51.046;13.780;2023-07-22T00:39:44;18.60;85.60
63277;DHT22;49403;51.046;13.780;2023-07-22T00:40:15;18.20;85.30
63277;DHT22;49403;51.046;13.780;2023-07-22T00:40:47;18.60;85.70
63277;DHT22;49403;51.046;13.780;2023-07-22T00:41:19;18.60;85.70
63277;DHT22;49403;51.046;13.780;2023-07-22T00:41:50;18.50;85.70
63277;DHT22;49403;51.046;13.780;2023-07-22T00:42:22;18.60;85.90
63277;DHT22;49403;51.046;13.780;2023-07-22T00:42:53;18.60;85.70
63277;DHT22;49403;51.046;13.780;2023-07-22T00:43:24;18.60;85.70
63277;DHT22;49403;51.046;13.780;2023-07-22T00:43:56;18.60;85.70
63277;DHT22;49403;51.046;13.780;2023-07-22T00:44:28;18.60;85.80
63277;DHT22;49403;51.046;13.780;2023-07-22T00:44:59;18.50;85.00
63277;DHT22;49403;51.046;13.780;2023-07-22T00:45:30;18.80;84.70
63277;DHT22;49403;51.046;13.780;2023-07-22T00:46:01;18.80;84.70
63277;DHT22;49403;51.046;13.780;2023-07-22T00:46:32;18.60;85.00
63277;DHT22;49403;51.046;13.780;2023-07-22T00:47:04;18.50;85.40
63277;DHT22;49403;51.046;13.780;2023-07-22T00:47:36;18.50;85.50
63277;DHT22;49403;51.046;13.780;2023-07-22T00:48:08;18.50;85.30
63277;DHT22;49403;51.046;13.780;2023-07-22T00:48:40;18.50;84.20
63277;DHT22;49403;51.046;13.780;2023-07-22T00:49:14;18.50;83.60
63277;DHT22;49403;51.046;13.780;2023-07-22T00:49:47;18.00;83.00
63277;DHT22;49403;51.046;13.780;2023-07-22T00:50:20;18.40;83.50
63277;DHT22;49403;51.046;13.780;2023-07-22T00:50:53;18.30;83.60
63277;DHT22;49403;51.046;13.780;2023-07-22T00:51:24;18.40;83.80
63277;DHT22;49403;51.046;13.780;2023-07-22T00:52:00;18.50;84.10
63277;DHT22;49403;51.046;13.780;2023-07-22T00:52:36;19.50;85.30
63277;DHT22;49403;51.046;13.780;2023-07-22T00:53:07;18.40;84.50
63277;DHT22;49403;51.046;13.780;2023-07-22T00:53:39;18.40;85.30
63277;DHT22;49403;51.046;13.780;2023-07-22T00:54:10;18.20;85.40
63277;DHT22;49403;51.046;13.780;2023-07-22T00:54:41;18.30;85.60
63277;DHT22;49403;51.046;13.780;2023-07-22T00:55:13;18.30;85.90
63277;DHT22;49403;51.046;13.780;2023-07-22T00:55:45;18.30;86.10
63277;DHT22;49403;51.046;13.780;2023-07-22T00:56:16;18.30;86.30
63277;DHT22;49403;51.046;13.780;2023-07-22T00:56:47;18.30;86.50
63277;DHT22;49403;51.046;13.780;2023-07-22T00:57:19;18.40;86.30
63277;DHT22;49403;51.046;13.780;2023-07-22T00:57:51;18.30;85.50
63277;DHT22;49403;51.046;13.780;2023-07-22T00:58:22;18.70;85.70
63277;DHT22;49403;51.046;13.780;2023-07-22T00:58:53;18.30;85.00
63277;DHT22;49403;51.046;13.780;2023-07-22T00:59:25;18.50;85.00
63277;DHT22;49403;51.046;13.780;2023-07-22T00:59:56;18.20;84.70
63277;DHT22;49403;51.046;13.780;2023-07-22T01:00:27;18.30;85.20
63277;DHT22;49403;51.046;13.780;2023-07-22T01:00:58;18.30;85.60
63277;DHT22;49403;51.046;13.780;2023-07-22T01:01:30;18.30;85.20
63277;DHT22;49403;51.046;13.780;2023-07-22T01:02:01;18.30;85.50
63277;DHT22;49403;51.046;13.780;2023-07-22T01:02:32;18.30;85.80
63277;DHT22;49403;51.046;13.780;2023-07-22T01:03:05;18.30;86.20
63277;DHT22;49403;51.046;13.780;2023-07-22T01:03:38;18.30;86.20
63277;DHT22;49403;51.046;13.780;2023-07-22T01:04:09;18.40;86.20
63277;DHT22;49403;51.046;13.780;2023-07-22T01:04:41;18.30;86.00
63277;DHT22;49403;51.046;13.780;2023-07-22T01:05:13;19.70;87.30
63277;DHT22;49403;51.046;13.780;2023-07-22T01:05:46;18.30;86.10
63277;DHT22;49403;51.046;13.780;2023-07-22T01:06:19;18.30;85.40
63277;DHT22;49403;51.046;13.780;2023-07-22T01:06:51;18.30;84.30
63277;DHT22;49403;51.046;13.780;2023-07-22T01:07:25;18.30;84.10
63277;DHT22;49403;51.046;13.780;2023-07-22T01:07:56;18.10;84.20
63277;DHT22;49403;51.046;13.780;2023-07-22T01:08:28;18.30;84.40
63277;DHT22;49403;51.046;13.780;2023-07-22T01:08:59;18.20;84.30
63277;DHT22;49403;51.046;13.780;2023-07-22T01:09:37;18.10;84.10
63277;DHT22;49403;51.046;13.780;2023-07-22T01:10:09;18.30;84.30
63277;DHT22;49403;51.046;13.780;2023-07-22T01:10:40;18.20;84.30
63277;DHT22;49403;51.046;13.780;2023-07-22T01:11:13;18.20;84.30
63277;DHT22;49403;51.046;13.780;2023-07-22T01:11:44;18.20;84.30
63277;DHT22;49403;51.046;13.780;2023-07-22T01:12:16;18.20;84.60
63277;DHT22;49403;51.046;13.780;2023-07-22T01:12:47;18.20;85.30
63277;DHT22;49403;51.046;13.780;2023-07-22T01:13:18;18.20;85.50
63277;DHT22;49403;51.046;13.780;2023-07-22T01:13:50;18.20;85.60
63277;DHT22;49403;51.046;13.780;2023-07-22T01:14:22;18.20;85.70
63277;DHT22;49403;51.046;13.780;2023-07-22T01:14:53;17.40;84.90
63277;DHT22;49403;51.046;13.780;2023-07-22T01:15:25;18.20;85.50
63277;DHT22;49403;51.046;13.780;2023-07-22T01:15:56;18.30;85.60
63277;DHT22;49403;51.046;13.780;2023-07-22T01:16:28;18.30;85.10
63277;DHT22;49403;51.046;13.780;2023-07-22T01:17:03;18.30;84.80
63277;DHT22;49403;51.046;13.780;2023-07-22T01:17:37;18.30;85.20
63277;DHT22;49403;51.046;13.780;2023-07-22T01:18:09;18.30;84.20
63277;DHT22;49403;51.046;13.780;2023-07-22T01:18:40;18.30;84.10
63277;DHT22;49403;51.046;13.780;2023-07-22T01:19:14;18.20;84.00
63277;DHT22;49403;51.046;13.780;2023-07-22T01:19:49;18.20;84.00
63277;DHT22;49403;51.046;13.780;2023-07-22T01:20:20;18.30;84.10
63277;DHT22;49403;51.046;13.780;2023-07-22T01:20:52;19.50;85.30
63277;DHT22;49403;51.046;13.780;2023-07-22T01:21:23;18.50;84.40
63277;DHT22;49403;51.046;13.780;2023-07-22T01:21:56;18.10;84.00
63277;DHT22;49403;51.046;13.780;2023-07-22T01:22:29;18.20;84.30
63277;DHT22;49403;51.046;13.780;2023-07-22T01:23:01;18.20;84.50
63277;DHT22;49403;51.046;13.780;2023-07-22T01:23:32;18.20;84.80
63277;DHT22;49403;51.046;13.780;2023-07-22T01:24:03;18.30;84.90
63277;DHT22;49403;51.046;13.780;2023-07-22T01:24:35;18.20;85.00
63277;DHT22;49403;51.046;13.780;2023-07-22T01:25:07;18.30;85.00
63277;DHT22;49403;51.046;13.780;2023-07-22T01:25:38;18.20;84.90
63277;DHT22;49403;51.046;13.780;2023-07-22T01:26:10;18.40;85.10
63277;DHT22;49403;51.046;13.780;2023-07-22T01:26:41;18.30;85.00
63277;DHT22;49403;51.046;13.780;2023-07-22T01:27:12;18.30;84.80
63277;DHT22;49403;51.046;13.780;2023-07-22T01:27:44;18.30;84.70
63277;DHT22;49403;51.046;13.780;2023-07-22T01:28:16;19.40;85.80
63277;DHT22;49403;51.046;13.780;2023-07-22T01:28:47;18.40;84.90
63277;DHT22;49403;51.046;13.780;2023-07-22T01:29:18;19.60;86.00
63277;DHT22;49403;51.046;13.780;2023-07-22T01:29:53;18.30;84.10
63277;DHT22;49403;51.046;13.780;2023-07-22T01:30:24;18.20;83.70
63277;DHT22;49403;51.046;13.780;2023-07-22T01:30:57;18.20;83.70
63277;DHT22;49403;51.046;13.780;2023-07-22T01:31:29;17.20;82.90
63277;DHT22;49403;51.046;13.780;2023-07-22T01:32:00;18.30;84.30
63277;DHT22;49403;51.046;13.780;2023-07-22T01:32:31;18.40;84.20
63277;DHT22;49403;51.046;13.780;2023-07-22T01:33:03;18.20;83.90
63277;DHT22;49403;51.046;13.780;2023-07-22T01:33:34;18.40;84.00
63277;DHT22;49403;51.046;13.780;2023-07-22T01:34:05;18.40;84.10
63277;DHT22;49403;51.046;13.780;2023-07-22T01:34:36;18.40;84.60
63277;DHT22;49403;51.046;13.780;2023-07-22T01:35:08;18.40;85.00
63277;DHT22;49403;51.046;13.780;2023-07-22T01:35:39;18.40;85.10
63277;DHT22;49403;51.046;13.780;2023-07-22T01:36:10;18.40;85.10
63277;DHT22;49403;51.046;13.780;2023-07-22T01:36:42;19.60;86.40
63277;DHT22;49403;51.046;13.780;2023-07-22T01:37:13;18.40;85.00
63277;DHT22;49403;51.046;13.780;2023-07-22T01:37:44;18.80;85.00
63277;DHT22;49403;51.046;13.780;2023-07-22T01:38:16;18.40;84.00
63277;DHT22;49403;51.046;13.780;2023-07-22T01:38:47;18.40;83.80
63277;DHT22;49403;51.046;13.780;2023-07-22T01:39:18;18.40;83.70
63277;DHT22;49403;51.046;13.780;2023-07-22T01:39:49;18.40;83.70
63277;DHT22;49403;51.046;13.780;2023-07-22T01:40:21;18.30;84.50
63277;DHT22;49403;51.046;13.780;2023-07-22T01:40:54;18.40;84.90
63277;DHT22;49403;51.046;13.780;2023-07-22T01:41:25;18.40;84.80
63277;DHT22;49403;51.046;13.780;2023-07-22T01:41:56;18.30;84.10
63277;DHT22;49403;51.046;13.780;2023-07-22T01:42:28;18.30;83.90
63277;DHT22;49403;51.046;13.780;2023-07-22T01:42:59;18.30;83.70
63277;DHT22;49403;51.046;13.780;2023-07-22T01:43:30;18.30;83.60
63277;DHT22;49403;51.046;13.780;2023-07-22T01:44:01;18.20;83.30
63277;DHT22;49403;51.046;13.780;2023-07-22T01:44:33;18.20;83.40
63277;DHT22;49403;51.046;13.780;2023-07-22T01:45:05;18.20;83.50
63277;DHT22;49403;51.046;13.780;2023-07-22T01:45:38;19.30;84.80
63277;DHT22;49403;51.046;13.780;2023-07-22T01:46:10;18.20;83.80
63277;DHT22;49403;51.046;13.780;2023-07-22T01:46:41;18.20;84.10
63277;DHT22;49403;51.046;13.780;2023-07-22T01:47:12;18.20;84.10
63277;DHT22;49403;51.046;13.780;2023-07-22T01:47:43;18.20;83.90
63277;DHT22;49403;51.046;13.780;2023-07-22T01:48:14;18.10;83.50
63277;DHT22;49403;51.046;13.780;2023-07-22T01:48:45;18.10;83.60
63277;DHT22;49403;51.046;13.780;2023-07-22T01:49:17;17.60;83.10
63277;DHT22;49403;51.046;13.780;2023-07-22T01:49:48;18.10;83.60
63277;DHT22;49403;51.046;13.780;2023-07-22T01:50:19;18.10;83.60
63277;DHT22;49403;51.046;13.780;2023-07-22T01:50:50;18.10;83.80
63277;DHT22;49403;51.046;13.780;2023-07-22T01:51:21;18.70;84.60
63277;DHT22;49403;51.046;13.780;2023-07-22T01:51:52;18.10;83.90
63277;DHT22;49403;51.046;13.780;2023-07-22T01:52:24;18.10;83.90
63277;DHT22;49403;51.046;13.780;2023-07-22T01:52:55;18.10;84.00
63277;DHT22;49403;51.046;13.780;2023-07-22T01:53:26;18.10;84.00
63277;DHT22;49403;51.046;13.780;2023-07-22T01:53:58;18.10;83.80
63277;DHT22;49403;51.046;13.780;2023-07-22T01:54:29;18.10;83.70
63277;DHT22;49403;51.046;13.780;2023-07-22T01:55:00;18.10;83.80
63277;DHT22;49403;51.046;13.780;2023-07-22T01:55:32;18.10;83.80
63277;DHT22;49403;51.046;13.780;2023-07-22T01:56:04;18.00;83.50
63277;DHT22;49403;51.046;13.780;2023-07-22T01:56:36;18.80;84.30
63277;DHT22;49403;51.046;13.780;2023-07-22T01:57:07;18.00;84.30
63277;DHT22;49403;51.046;13.780;2023-07-22T01:57:38;19.00;84.70
63277;DHT22;49403;51.046;13.780;2023-07-22T01:58:12;18.00;83.70
63277;DHT22;49403;51.046;13.780;2023-07-22T01:58:43;17.30;83.10
63277;DHT22;49403;51.046;13.780;2023-07-22T01:59:15;18.00;83.90
63277;DHT22;49403;51.046;13.780;2023-07-22T01:59:46;18.00;84.10
63277;DHT22;49403;51.046;13.780;2023-07-22T02:00:17;18.30;84.30
63277;DHT22;49403;51.046;13.780;2023-07-22T02:00:51;17.90;83.80
63277;DHT22;49403;51.046;13.780;2023-07-22T02:01:22;17.90;83.80
63277;DHT22;49403;51.046;13.780;2023-07-22T02:01:53;18.00;84.00
63277;DHT22;49403;51.046;13.780;2023-07-22T02:02:24;17.90;84.00
63277;DHT22;49403;51.046;13.780;2023-07-22T02:02:55;17.90;84.00
63277;DHT22;49403;51.046;13.780;2023-07-22T02:03:27;17.90;84.00
63277;DHT22;49403;51.046;13.780;2023-07-22T02:03:58;17.90;84.10
63277;DHT22;49403;51.046;13.780;2023-07-22T02:04:29;17.80;84.10
63277;DHT22;49403;51.046;13.780;2023-07-22T02:05:00;17.90;84.30
63277;DHT22;49403;51.046;13.780;2023-07-22T02:05:32;17.10;84.20
63277;DHT22;49403;51.046;13.780;2023-07-22T02:06:03;17.40;83.80
63277;DHT22;49403;51.046;13.780;2023-07-22T02:06:35;17.80;84.40
63277;DHT22;49403;51.046;13.780;2023-07-22T02:07:06;17.80;84.60
63277;DHT22;49403;51.046;13.780;2023-07-22T02:07:37;17.80;84.60
63277;DHT22;49403;51.046;13.780;2023-07-22T02:08:09;17.80;84.70
63277;DHT22;49403;51.046;13.780;2023-07-22T02:08:40;17.80;84.80
63277;DHT22;49403;51.046;13.780;2023-07-22T02:09:11;17.80;84.70
63277;DHT22;49403;51.046;13.780;2023-07-22T02:09:44;17.40;84.50
63277;DHT22;49403;51.046;13.780;2023-07-22T02:10:16;17.80;84.70
63277;DHT22;49403;51.046;13.780;2023-07-22T02:10:47;17.80;84.70
63277;DHT22;49403;51.046;13.780;2023-07-22T02:11:18;17.80;84.80
63277;DHT22;49403;51.046;13.780;2023-07-22T02:11:49;17.80;84.60
63277;DHT22;49403;51.046;13.780;2023-07-22T02:12:20;17.90;85.00
63277;DHT22;49403;51.046;13.780;2023-07-22T02:12:51;17.80;84.90
63277;DHT22;49403;51.046;13.780;2023-07-22T02:13:22;17.80;84.80
63277;DHT22;49403;51.046;13.780;2023-07-22T02:13:53;17.80;84.80
63277;DHT22;49403;51.046;13.780;2023-07-22T02:14:24;17.80;84.90
63277;DHT22;49403;51.046;13.780;2023-07-22T02:14:55;17.70;84.70
63277;DHT22;49403;51.046;13.780;2023-07-22T02:15:27;19.00;86.20
63277;DHT22;49403;51.046;13.780;2023-07-22T02:15:58;17.60;84.60
63277;DHT22;49403;51.046;13.780;2023-07-22T02:16:29;17.60;84.50
63277;DHT22;49403;51.046;13.780;2023-07-22T02:17:00;17.80;84.80
63277;DHT22;49403;51.046;13.780;2023-07-22T02:17:32;17.80;84.60
63277;DHT22;49403;51.046;13.780;2023-07-22T02:18:04;17.80;84.70
63277;DHT22;49403;51.046;13.780;2023-07-22T02:18:35;17.80;84.90
63277;DHT22;49403;51.046;13.780;2023-07-22T02:19:06;17.80;85.50
63277;DHT22;49403;51.046;13.780;2023-07-22T02:19:37;18.70;85.70
63277;DHT22;49403;51.046;13.780;2023-07-22T02:20:09;17.80;84.80
63277;DHT22;49403;51.046;13.780;2023-07-22T02:20:42;17.80;84.80
63277;DHT22;49403;51.046;13.780;2023-07-22T02:21:13;17.80;84.90
63277;DHT22;49403;51.046;13.780;2023-07-22T02:21:45;16.30;83.30
63277;DHT22;49403;51.046;13.780;2023-07-22T02:22:16;17.90;85.00
63277;DHT22;49403;51.046;13.780;2023-07-22T02:22:47;17.80;85.10
63277;DHT22;49403;51.046;13.780;2023-07-22T02:23:18;17.80;84.80
63277;DHT22;49403;51.046;13.780;2023-07-22T02:23:49;17.80;84.80
63277;DHT22;49403;51.046;13.780;2023-07-22T02:24:21;17.80;84.70
63277;DHT22;49403;51.046;13.780;2023-07-22T02:24:53;17.80;84.70
63277;DHT22;49403;51.046;13.780;2023-07-22T02:25:24;17.60;84.60
63277;DHT22;49403;51.046;13.780;2023-07-22T02:25:55;17.80;85.10
63277;DHT22;49403;51.046;13.780;2023-07-22T02:26:26;17.80;84.90
63277;DHT22;49403;51.046;13.780;2023-07-22T02:26:57;17.80;85.00
63277;DHT22;49403;51.046;13.780;2023-07-22T02:27:28;17.70;85.10
63277;DHT22;49403;51.046;13.780;2023-07-22T02:27:59;17.70;85.30
63277;DHT22;49403;51.046;13.780;2023-07-22T02:28:30;17.70;85.40
63277;DHT22;49403;51.046;13.780;2023-07-22T02:29:02;17.80;85.60
63277;DHT22;49403;51.046;13.780;2023-07-22T02:29:33;17.70;85.20
63277;DHT22;49403;51.046;13.780;2023-07-22T02:30:04;17.80;85.60
63277;DHT22;49403;51.046;13.780;2023-07-22T02:30:36;17.80;86.00
63277;DHT22;49403;51.046;13.780;2023-07-22T02:31:07;17.70;86.10
63277;DHT22;49403;51.046;13.780;2023-07-22T02:31:38;17.80;86.20
63277;DHT22;49403;51.046;13.780;2023-07-22T02:32:10;17.80;86.00
63277;DHT22;49403;51.046;13.780;2023-07-22T02:32:41;17.80;86.10
63277;DHT22;49403;51.046;13.780;2023-07-22T02:33:13;17.80;86.10
63277;DHT22;49403;51.046;13.780;2023-07-22T02:33:44;17.80;85.50
63277;DHT22;49403;51.046;13.780;2023-07-22T02:34:15;17.50;85.00
63277;DHT22;49403;51.046;13.780;2023-07-22T02:34:47;17.70;85.10
63277;DHT22;49403;51.046;13.780;2023-07-22T02:35:18;17.80;84.90
63277;DHT22;49403;51.046;13.780;2023-07-22T02:35:49;17.80;85.10
63277;DHT22;49403;51.046;13.780;2023-07-22T02:36:20;17.80;85.10
63277;DHT22;49403;51.046;13.780;2023-07-22T02:36:51;18.50;85.80
63277;DHT22;49403;51.046;13.780;2023-07-22T02:37:22;17.80;85.30
63277;DHT22;49403;51.046;13.780;2023-07-22T02:37:53;17.80;85.20
63277;DHT22;49403;51.046;13.780;2023-07-22T02:38:24;17.80;85.30
63277;DHT22;49403;51.046;13.780;2023-07-22T02:38:55;17.80;85.30
63277;DHT22;49403;51.046;13.780;2023-07-22T02:39:26;17.80;85.30
63277;DHT22;49403;51.046;13.780;2023-07-22T02:39:58;17.80;85.30
63277;DHT22;49403;51.046;13.780;2023-07-22T02:40:29;18.10;85.50
63277;DHT22;49403;51.046;13.780;2023-07-22T02:41:04;17.80;85.20
63277;DHT22;49403;51.046;13.780;2023-07-22T02:41:37;17.80;85.10
63277;DHT22;49403;51.046;13.780;2023-07-22T02:42:08;17.80;84.80
63277;DHT22;49403;51.046;13.780;2023-07-22T02:42:39;17.80;84.80
63277;DHT22;49403;51.046;13.780;2023-07-22T02:43:10;17.80;84.70
63277;DHT22;49403;51.046;13.780;2023-07-22T02:43:42;17.70;84.80
63277;DHT22;49403;51.046;13.780;2023-07-22T02:44:14;17.80;84.80
63277;DHT22;49403;51.046;13.780;2023-07-22T02:44:45;17.10;84.10
63277;DHT22;49403;51.046;13.780;2023-07-22T02:45:16;17.80;84.90
63277;DHT22;49403;51.046;13.780;2023-07-22T02:45:47;17.70;84.70
63277;DHT22;49403;51.046;13.780;2023-07-22T02:46:18;17.70;84.80
63277;DHT22;49403;51.046;13.780;2023-07-22T02:46:49;17.70;84.90
63277;DHT22;49403;51.046;13.780;2023-07-22T02:47:20;17.70;85.10
63277;DHT22;49403;51.046;13.780;2023-07-22T02:47:51;17.70;85.10
63277;DHT22;49403;51.046;13.780;2023-07-22T02:48:22;17.70;85.40
63277;DHT22;49403;51.046;13.780;2023-07-22T02:48:53;18.70;86.30
63277;DHT22;49403;51.046;13.780;2023-07-22T02:49:25;17.70;85.50
63277;DHT22;49403;51.046;13.780;2023-07-22T02:49:56;17.70;85.50
63277;DHT22;49403;51.046;13.780;2023-07-22T02:50:28;17.70;85.40
63277;DHT22;49403;51.046;13.780;2023-07-22T02:51:11;17.60;85.30
63277;DHT22;49403;51.046;13.780;2023-07-22T02:51:42;17.60;85.20
63277;DHT22;49403;51.046;13.780;2023-07-22T02:52:13;17.60;85.30
63277;DHT22;49403;51.046;13.780;2023-07-22T02:52:44;18.30;86.00
63277;DHT22;49403;51.046;13.780;2023-07-22T02:53:16;17.60;85.30
63277;DHT22;49403;51.046;13.780;2023-07-22T02:53:47;17.30;85.00
63277;DHT22;49403;51.046;13.780;2023-07-22T02:54:18;17.60;85.40
63277;DHT22;49403;51.046;13.780;2023-07-22T02:55:11;17.60;85.50
63277;DHT22;49403;51.046;13.780;2023-07-22T02:55:42;17.60;85.20
63277;DHT22;49403;51.046;13.780;2023-07-22T02:56:14;17.50;85.20
63277;DHT22;49403;51.046;13.780;2023-07-22T02:56:45;18.90;86.60
63277;DHT22;49403;51.046;13.780;2023-07-22T02:57:16;17.50;85.60
63277;DHT22;49403;51.046;13.780;2023-07-22T02:57:48;18.60;86.80
63277;DHT22;49403;51.046;13.780;2023-07-22T02:58:19;17.50;85.70
63277;DHT22;49403;51.046;13.780;2023-07-22T02:58:50;17.50;85.70
63277;DHT22;49403;51.046;13.780;2023-07-22T02:59:21;17.50;85.80
63277;DHT22;49403;51.046;13.780;2023-07-22T02:59:52;17.50;85.90
63277;DHT22;49403;51.046;13.780;2023-07-22T03:00:23;17.20;85.90
63277;DHT22;49403;51.046;13.780;2023-07-22T03:00:54;16.10;84.80
63277;DHT22;49403;51.046;13.780;2023-07-22T03:01:26;17.40;86.20
63277;DHT22;49403;51.046;13.780;2023-07-22T03:01:57;17.40;86.20
63277;DHT22;49403;51.046;13.780;2023-07-22T03:02:29;17.30;86.10
63277;DHT22;49403;51.046;13.780;2023-07-22T03:03:00;17.40;86.40
63277;DHT22;49403;51.046;13.780;2023-07-22T03:03:31;17.30;86.20
63277;DHT22;49403;51.046;13.780;2023-07-22T03:04:05;17.40;86.30
63277;DHT22;49403;51.046;13.780;2023-07-22T03:04:36;17.40;86.40
63277;DHT22;49403;51.046;13.780;2023-07-22T03:05:08;17.30;86.50
63277;DHT22;49403;51.046;13.780;2023-07-22T03:05:40;17.30;86.40
63277;DHT22;49403;51.046;13.780;2023-07-22T03:06:11;17.30;86.50
63277;DHT22;49403;51.046;13.780;2023-07-22T03:06:42;17.30;86.40
63277;DHT22;49403;51.046;13.780;2023-07-22T03:07:14;17.30;86.50
63277;DHT22;49403;51.046;13.780;2023-07-22T03:07:45;17.30;86.60
63277;DHT22;49403;51.046;13.780;2023-07-22T03:08:16;17.30;86.40
63277;DHT22;49403;51.046;13.780;2023-07-22T03:08:48;17.30;86.50
63277;DHT22;49403;51.046;13.780;2023-07-22T03:09:19;18.40;87.50
63277;DHT22;49403;51.046;13.780;2023-07-22T03:09:52;18.00;87.10
63277;DHT22;49403;51.046;13.780;2023-07-22T03:10:23;16.90;85.80
63277;DHT22;49403;51.046;13.780;2023-07-22T03:10:56;17.40;86.30
63277;DHT22;49403;51.046;13.780;2023-07-22T03:11:28;17.40;86.30
63277;DHT22;49403;51.046;13.780;2023-07-22T03:12:00;17.40;86.40
63277;DHT22;49403;51.046;13.780;2023-07-22T03:12:32;17.30;86.40
63277;DHT22;49403;51.046;13.780;2023-07-22T03:13:03;17.40;86.30
63277;DHT22;49403;51.046;13.780;2023-07-22T03:13:34;17.40;86.40
63277;DHT22;49403;51.046;13.780;2023-07-22T03:14:05;17.40;86.20
63277;DHT22;49403;51.046;13.780;2023-07-22T03:14:36;17.40;86.50
63277;DHT22;49403;51.046;13.780;2023-07-22T03:15:08;17.50;86.40
63277;DHT22;49403;51.046;13.780;2023-07-22T03:15:39;17.40;86.20
63277;DHT22;49403;51.046;13.780;2023-07-22T03:16:10;17.30;86.00
63277;DHT22;49403;51.046;13.780;2023-07-22T03:16:41;17.40;86.10